sensor_id;sensor_type;location;lat;lon;timestamp;P1;durP1;ratioP1;P2;durP2;ratioP2
83026;SDS011;72842;56.038;12.706;2024-03-23T00:55:38;13.70;;;3.13;;
83026;SDS011;72842;56.038;12.706;2024-03-23T00:58:03;16.00;;;3.55;;
83026;SDS011;72842;56.038;12.706;2024-03-23T01:00:29;14.70;;;3.35;;
83026;SDS011;72842;56.038;12.706;2024-03-23T01:02:54;11.45;;;2.72;;
83026;SDS011;72842;56.038;12.706;2024-03-23T01:05:19;11.88;;;2.78;;
83026;SDS011;72842;56.038;12.706;2024-03-23T01:07:45;9.43;;;4.05;;
83026;SDS011;72842;56.038;12.706;2024-03-23T01:10:10;10.75;;;2.88;;
83026;SDS011;72842;56.038;12.706;2024-03-23T01:12:36;22.00;;;3.78;;
83026;SDS011;72842;56.038;12.706;2024-03-23T01:15:01;12.88;;;3.03;;
83026;SDS011;72842;56.038;12.706;2024-03-23T01:17:27;13.80;;;2.65;;
83026;SDS011;72842;56.038;12.706;2024-03-23T01:19:53;13.77;;;2.90;;
83026;SDS011;72842;56.038;12.706;2024-03-23T01:22:18;13.07;;;3.80;;
83026;SDS011;72842;56.038;12.706;2024-03-23T01:24:43;10.40;;;3.25;;
83026;SDS011;72842;56.038;12.706;2024-03-23T01:27:09;12.43;;;2.78;;
83026;SDS011;72842;56.038;12.706;2024-03-23T01:29:35;10.50;;;2.30;;
83026;SDS011;72842;56.038;12.706;2024-03-23T01:32:00;11.23;;;3.45;;
83026;SDS011;72842;56.038;12.706;2024-03-23T01:34:26;14.55;;;3.10;;
83026;SDS011;72842;56.038;12.706;2024-03-23T01:36:53;11.75;;;2.33;;
83026;SDS011;72842;56.038;12.706;2024-03-23T01:39:18;11.27;;;2.55;;
83026;SDS011;72842;56.038;12.706;2024-03-23T01:41:43;17.35;;;3.15;;
83026;SDS011;72842;56.038;12.706;2024-03-23T01:44:09;14.23;;;3.35;;
83026;SDS011;72842;56.038;12.706;2024-03-23T01:46:36;11.57;;;2.70;;
83026;SDS011;72842;56.038;12.706;2024-03-23T01:49:02;10.77;;;3.33;;
83026;SDS011;72842;56.038;12.706;2024-03-23T01:51:29;16.58;;;3.85;;
83026;SDS011;72842;56.038;12.706;2024-03-23T01:53:55;11.35;;;2.42;;
83026;SDS011;72842;56.038;12.706;2024-03-23T01:56:22;10.70;;;2.40;;
83026;SDS011;72842;56.038;12.706;2024-03-23T01:58:47;13.35;;;2.80;;
83026;SDS011;72842;56.038;12.706;2024-03-23T02:01:13;11.40;;;2.97;;
83026;SDS011;72842;56.038;12.706;2024-03-23T02:03:38;12.65;;;3.05;;
83026;SDS011;72842;56.038;12.706;2024-03-23T02:06:04;11.50;;;2.75;;
83026;SDS011;72842;56.038;12.706;2024-03-23T02:08:32;10.95;;;4.13;;
83026;SDS011;72842;56.038;12.706;2024-03-23T02:10:58;14.60;;;3.50;;
83026;SDS011;72842;56.038;12.706;2024-03-23T02:13:23;13.65;;;3.00;;
83026;SDS011;72842;56.038;12.706;2024-03-23T02:15:49;14.15;;;3.50;;
83026;SDS011;72842;56.038;12.706;2024-03-23T02:18:14;16.60;;;3.40;;
83026;SDS011;72842;56.038;12.706;2024-03-23T02:20:40;13.63;;;3.05;;
83026;SDS011;72842;56.038;12.706;2024-03-23T02:23:05;10.68;;;3.30;;
83026;SDS011;72842;56.038;12.706;2024-03-23T02:25:37;12.15;;;3.22;;
83026;SDS011;72842;56.038;12.706;2024-03-23T02:28:03;12.65;;;2.97;;
83026;SDS011;72842;56.038;12.706;2024-03-23T02:30:28;11.95;;;2.85;;
83026;SDS011;72842;56.038;12.706;2024-03-23T02:32:54;12.68;;;2.90;;
83026;SDS011;72842;56.038;12.706;2024-03-23T02:35:19;16.25;;;2.85;;
83026;SDS011;72842;56.038;12.706;2024-03-23T02:37:46;12.88;;;3.05;;
83026;SDS011;72842;56.038;12.706;2024-03-23T02:40:11;12.90;;;4.03;;
83026;SDS011;72842;56.038;12.706;2024-03-23T02:42:37;14.60;;;2.65;;
83026;SDS011;72842;56.038;12.706;2024-03-23T02:45:02;13.77;;;2.47;;
83026;SDS011;72842;56.038;12.706;2024-03-23T02:47:30;11.23;;;2.72;;
83026;SDS011;72842;56.038;12.706;2024-03-23T02:49:55;13.40;;;2.58;;
83026;SDS011;72842;56.038;12.706;2024-03-23T02:52:21;8.07;;;2.88;;
83026;SDS011;72842;56.038;12.706;2024-03-23T02:54:46;8.85;;;2.05;;
83026;SDS011;72842;56.038;12.706;2024-03-23T02:57:12;13.30;;;3.05;;
83026;SDS011;72842;56.038;12.706;2024-03-23T02:59:37;12.98;;;2.90;;
83026;SDS011;72842;56.038;12.706;2024-03-23T03:02:02;16.45;;;3.72;;
83026;SDS011;72842;56.038;12.706;2024-03-23T03:04:29;13.52;;;3.70;;
83026;SDS011;72842;56.038;12.706;2024-03-23T03:06:55;17.80;;;2.60;;
83026;SDS011;72842;56.038;12.706;2024-03-23T03:09:21;11.15;;;3.20;;
83026;SDS011;72842;56.038;12.706;2024-03-23T03:11:46;12.77;;;3.08;;
83026;SDS011;72842;56.038;12.706;2024-03-23T03:14:12;15.77;;;3.47;;
83026;SDS011;72842;56.038;12.706;2024-03-23T03:16:37;14.07;;;3.65;;
83026;SDS011;72842;56.038;12.706;2024-03-23T03:19:03;13.63;;;3.85;;
83026;SDS011;72842;56.038;12.706;2024-03-23T03:21:28;13.75;;;3.47;;
83026;SDS011;72842;56.038;12.706;2024-03-23T03:23:54;13.15;;;3.05;;
83026;SDS011;72842;56.038;12.706;2024-03-23T03:26:21;14.77;;;3.00;;
83026;SDS011;72842;56.038;12.706;2024-03-23T03:28:47;11.93;;;2.80;;
83026;SDS011;72842;56.038;12.706;2024-03-23T03:31:17;11.95;;;2.90;;
83026;SDS011;72842;56.038;12.706;2024-03-23T03:33:43;17.13;;;3.45;;
83026;SDS011;72842;56.038;12.706;2024-03-23T03:36:09;8.85;;;3.45;;
83026;SDS011;72842;56.038;12.706;2024-03-23T03:38:35;18.38;;;3.13;;
83026;SDS011;72842;56.038;12.706;2024-03-23T03:41:04;10.68;;;2.83;;
83026;SDS011;72842;56.038;12.706;2024-03-23T03:43:31;11.77;;;3.72;;
83026;SDS011;72842;56.038;12.706;2024-03-23T03:45:57;13.02;;;3.20;;
83026;SDS011;72842;56.038;12.706;2024-03-23T03:48:24;10.52;;;2.90;;
83026;SDS011;72842;56.038;12.706;2024-03-23T03:50:49;11.35;;;2.88;;
83026;SDS011;72842;56.038;12.706;2024-03-23T03:53:15;12.45;;;3.38;;
83026;SDS011;72842;56.038;12.706;2024-03-23T03:55:41;11.98;;;4.03;;
83026;SDS011;72842;56.038;12.706;2024-03-23T03:58:07;14.43;;;3.10;;
83026;SDS011;72842;56.038;12.706;2024-03-23T04:00:32;12.30;;;3.10;;
83026;SDS011;72842;56.038;12.706;2024-03-23T04:02:58;15.30;;;2.38;;
83026;SDS011;72842;56.038;12.706;2024-03-23T04:05:23;16.80;;;3.75;;
83026;SDS011;72842;56.038;12.706;2024-03-23T04:07:49;16.27;;;3.05;;
83026;SDS011;72842;56.038;12.706;2024-03-23T04:10:14;11.25;;;2.88;;
83026;SDS011;72842;56.038;12.706;2024-03-23T04:12:40;10.57;;;2.83;;
83026;SDS011;72842;56.038;12.706;2024-03-23T04:15:06;14.18;;;3.53;;
83026;SDS011;72842;56.038;12.706;2024-03-23T04:17:33;13.43;;;3.33;;
83026;SDS011;72842;56.038;12.706;2024-03-23T04:19:59;16.77;;;3.85;;
83026;SDS011;72842;56.038;12.706;2024-03-23T04:22:26;10.15;;;2.60;;
83026;SDS011;72842;56.038;12.706;2024-03-23T04:24:58;13.77;;;2.70;;
83026;SDS011;72842;56.038;12.706;2024-03-23T04:27:23;15.00;;;3.08;;
83026;SDS011;72842;56.038;12.706;2024-03-23T04:29:50;13.93;;;3.42;;
83026;SDS011;72842;56.038;12.706;2024-03-23T04:32:16;14.65;;;2.95;;
83026;SDS011;72842;56.038;12.706;2024-03-23T04:34:42;11.27;;;2.72;;
83026;SDS011;72842;56.038;12.706;2024-03-23T04:37:08;15.90;;;3.83;;
83026;SDS011;72842;56.038;12.706;2024-03-23T04:39:35;11.43;;;3.20;;
83026;SDS011;72842;56.038;12.706;2024-03-23T04:42:01;12.73;;;3.72;;
83026;SDS011;72842;56.038;12.706;2024-03-23T04:44:27;15.60;;;3.08;;
83026;SDS011;72842;56.038;12.706;2024-03-23T04:46:53;15.02;;;4.00;;
83026;SDS011;72842;56.038;12.706;2024-03-23T04:49:19;16.05;;;3.45;;
83026;SDS011;72842;56.038;12.706;2024-03-23T04:51:44;13.88;;;4.30;;
83026;SDS011;72842;56.038;12.706;2024-03-23T04:54:14;18.10;;;3.92;;
83026;SDS011;72842;56.038;12.706;2024-03-23T04:56:40;11.82;;;2.60;;
83026;SDS011;72842;56.038;12.706;2024-03-23T04:59:06;11.55;;;3.05;;
83026;SDS011;72842;56.038;12.706;2024-03-23T05:01:32;11.98;;;2.60;;
83026;SDS011;72842;56.038;12.706;2024-03-23T05:03:57;12.75;;;2.67;;
83026;SDS011;72842;56.038;12.706;2024-03-23T05:06:23;11.45;;;2.90;;
83026;SDS011;72842;56.038;12.706;2024-03-23T05:08:49;15.32;;;2.25;;
83026;SDS011;72842;56.038;12.706;2024-03-23T05:11:15;17.05;;;3.17;;
83026;SDS011;72842;56.038;12.706;2024-03-23T05:13:41;12.48;;;3.17;;
83026;SDS011;72842;56.038;12.706;2024-03-23T05:16:06;14.55;;;2.95;;
83026;SDS011;72842;56.038;12.706;2024-03-23T05:18:32;11.80;;;4.07;;
83026;SDS011;72842;56.038;12.706;2024-03-23T05:20:58;14.45;;;2.95;;
83026;SDS011;72842;56.038;12.706;2024-03-23T05:23:24;16.60;;;3.30;;
83026;SDS011;72842;56.038;12.706;2024-03-23T05:25:50;14.07;;;3.78;;
83026;SDS011;72842;56.038;12.706;2024-03-23T05:28:16;9.95;;;3.95;;
83026;SDS011;72842;56.038;12.706;2024-03-23T05:30:42;12.68;;;2.55;;
83026;SDS011;72842;56.038;12.706;2024-03-23T05:33:08;12.13;;;2.47;;
83026;SDS011;72842;56.038;12.706;2024-03-23T05:35:33;12.10;;;3.63;;
83026;SDS011;72842;56.038;12.706;2024-03-23T05:37:59;14.93;;;3.00;;
83026;SDS011;72842;56.038;12.706;2024-03-23T05:40:25;13.07;;;3.67;;
83026;SDS011;72842;56.038;12.706;2024-03-23T05:42:52;11.35;;;2.90;;
83026;SDS011;72842;56.038;12.706;2024-03-23T05:45:23;14.63;;;2.85;;
83026;SDS011;72842;56.038;12.706;2024-03-23T05:47:49;12.00;;;3.22;;
83026;SDS011;72842;56.038;12.706;2024-03-23T05:50:14;14.98;;;4.20;;
83026;SDS011;72842;56.038;12.706;2024-03-23T05:52:40;16.45;;;3.53;;
83026;SDS011;72842;56.038;12.706;2024-03-23T05:55:06;13.75;;;3.38;;
83026;SDS011;72842;56.038;12.706;2024-03-23T05:57:32;11.38;;;3.25;;
83026;SDS011;72842;56.038;12.706;2024-03-23T05:59:57;10.90;;;2.38;;
83026;SDS011;72842;56.038;12.706;2024-03-23T06:02:23;16.55;;;3.10;;
83026;SDS011;72842;56.038;12.706;2024-03-23T06:04:49;15.30;;;3.10;;
83026;SDS011;72842;56.038;12.706;2024-03-23T06:07:14;10.43;;;2.38;;
83026;SDS011;72842;56.038;12.706;2024-03-23T06:09:40;11.15;;;2.85;;
83026;SDS011;72842;56.038;12.706;2024-03-23T06:12:06;14.15;;;3.33;;
83026;SDS011;72842;56.038;12.706;2024-03-23T06:14:32;14.68;;;3.17;;
83026;SDS011;72842;56.038;12.706;2024-03-23T06:16:58;13.50;;;2.42;;
83026;SDS011;72842;56.038;12.706;2024-03-23T06:19:24;9.13;;;3.25;;
83026;SDS011;72842;56.038;12.706;2024-03-23T06:21:52;12.57;;;2.70;;
83026;SDS011;72842;56.038;12.706;2024-03-23T06:24:18;15.90;;;3.85;;
83026;SDS011;72842;56.038;12.706;2024-03-23T06:26:43;9.35;;;2.47;;
83026;SDS011;72842;56.038;12.706;2024-03-23T06:29:09;13.48;;;2.78;;
83026;SDS011;72842;56.038;12.706;2024-03-23T06:31:34;12.93;;;3.45;;
83026;SDS011;72842;56.038;12.706;2024-03-23T06:34:00;13.18;;;2.58;;
83026;SDS011;72842;56.038;12.706;2024-03-23T06:36:26;10.07;;;2.80;;
83026;SDS011;72842;56.038;12.706;2024-03-23T06:38:52;14.48;;;3.03;;
83026;SDS011;72842;56.038;12.706;2024-03-23T06:41:18;13.23;;;2.75;;
83026;SDS011;72842;56.038;12.706;2024-03-23T06:43:44;14.07;;;2.92;;
83026;SDS011;72842;56.038;12.706;2024-03-23T06:46:10;11.65;;;2.78;;
83026;SDS011;72842;56.038;12.706;2024-03-23T06:48:35;11.93;;;3.25;;
83026;SDS011;72842;56.038;12.706;2024-03-23T06:51:01;10.02;;;3.00;;
83026;SDS011;72842;56.038;12.706;2024-03-23T06:53:26;12.20;;;2.95;;
83026;SDS011;72842;56.038;12.706;2024-03-23T06:55:52;11.70;;;2.50;;
83026;SDS011;72842;56.038;12.706;2024-03-23T06:58:22;11.32;;;3.00;;
83026;SDS011;72842;56.038;12.706;2024-03-23T07:00:48;13.25;;;2.78;;
83026;SDS011;72842;56.038;12.706;2024-03-23T07:03:15;10.98;;;3.05;;
83026;SDS011;72842;56.038;12.706;2024-03-23T07:05:41;10.13;;;3.00;;
83026;SDS011;72842;56.038;12.706;2024-03-23T07:08:07;11.77;;;4.63;;
83026;SDS011;72842;56.038;12.706;2024-03-23T07:10:33;11.05;;;2.90;;
83026;SDS011;72842;56.038;12.706;2024-03-23T07:12:58;7.65;;;2.47;;
83026;SDS011;72842;56.038;12.706;2024-03-23T07:15:24;14.40;;;3.47;;
83026;SDS011;72842;56.038;12.706;2024-03-23T07:17:49;14.52;;;3.00;;
83026;SDS011;72842;56.038;12.706;2024-03-23T07:20:15;11.13;;;2.92;;
83026;SDS011;72842;56.038;12.706;2024-03-23T07:22:41;12.50;;;2.63;;
83026;SDS011;72842;56.038;12.706;2024-03-23T07:25:06;11.55;;;3.20;;
83026;SDS011;72842;56.038;12.706;2024-03-23T07:27:32;11.52;;;3.20;;
83026;SDS011;72842;56.038;12.706;2024-03-23T07:29:58;12.35;;;3.13;;
83026;SDS011;72842;56.038;12.706;2024-03-23T07:32:24;12.18;;;2.50;;
83026;SDS011;72842;56.038;12.706;2024-03-23T07:34:51;14.40;;;3.25;;
83026;SDS011;72842;56.038;12.706;2024-03-23T07:37:18;11.15;;;3.35;;
83026;SDS011;72842;56.038;12.706;2024-03-23T07:39:43;9.88;;;2.70;;
83026;SDS011;72842;56.038;12.706;2024-03-23T07:42:09;16.42;;;3.22;;
83026;SDS011;72842;56.038;12.706;2024-03-23T07:44:34;13.00;;;3.20;;
83026;SDS011;72842;56.038;12.706;2024-03-23T07:47:02;13.70;;;3.25;;
83026;SDS011;72842;56.038;12.706;2024-03-23T07:49:28;14.77;;;3.60;;
83026;SDS011;72842;56.038;12.706;2024-03-23T07:51:54;10.98;;;2.50;;
83026;SDS011;72842;56.038;12.706;2024-03-23T07:54:19;15.32;;;3.67;;
83026;SDS011;72842;56.038;12.706;2024-03-23T07:56:44;11.07;;;2.90;;
83026;SDS011;72842;56.038;12.706;2024-03-23T07:59:10;11.18;;;2.50;;
83026;SDS011;72842;56.038;12.706;2024-03-23T08:01:36;11.30;;;3.78;;
83026;SDS011;72842;56.038;12.706;2024-03-23T08:04:01;13.85;;;2.88;;
83026;SDS011;72842;56.038;12.706;2024-03-23T08:06:27;10.00;;;2.78;;
83026;SDS011;72842;56.038;12.706;2024-03-23T08:08:54;15.68;;;3.22;;
83026;SDS011;72842;56.038;12.706;2024-03-23T08:11:27;14.30;;;3.72;;
83026;SDS011;72842;56.038;12.706;2024-03-23T08:13:54;15.48;;;4.50;;
83026;SDS011;72842;56.038;12.706;2024-03-23T08:16:20;13.23;;;3.03;;
83026;SDS011;72842;56.038;12.706;2024-03-23T08:18:45;16.45;;;3.17;;
83026;SDS011;72842;56.038;12.706;2024-03-23T08:21:10;13.30;;;3.08;;
83026;SDS011;72842;56.038;12.706;2024-03-23T08:23:36;13.85;;;3.28;;
83026;SDS011;72842;56.038;12.706;2024-03-23T08:26:12;14.65;;;3.33;;
83026;SDS011;72842;56.038;12.706;2024-03-23T08:28:40;11.05;;;3.13;;
83026;SDS011;72842;56.038;12.706;2024-03-23T08:31:06;12.75;;;3.13;;
83026;SDS011;72842;56.038;12.706;2024-03-23T08:33:34;10.75;;;2.70;;
83026;SDS011;72842;56.038;12.706;2024-03-23T08:36:00;11.52;;;2.45;;
83026;SDS011;72842;56.038;12.706;2024-03-23T08:38:30;12.73;;;3.15;;
83026;SDS011;72842;56.038;12.706;2024-03-23T08:40:57;15.50;;;2.92;;
83026;SDS011;72842;56.038;12.706;2024-03-23T08:43:23;10.43;;;2.40;;
83026;SDS011;72842;56.038;12.706;2024-03-23T08:45:48;13.43;;;3.30;;
83026;SDS011;72842;56.038;12.706;2024-03-23T08:48:14;11.65;;;2.60;;
83026;SDS011;72842;56.038;12.706;2024-03-23T08:50:40;11.25;;;2.90;;
83026;SDS011;72842;56.038;12.706;2024-03-23T08:53:06;12.90;;;3.50;;
83026;SDS011;72842;56.038;12.706;2024-03-23T08:55:31;9.90;;;2.40;;
83026;SDS011;72842;56.038;12.706;2024-03-23T08:57:57;11.90;;;3.05;;
83026;SDS011;72842;56.038;12.706;2024-03-23T09:00:22;10.73;;;3.08;;
83026;SDS011;72842;56.038;12.706;2024-03-23T09:02:48;13.13;;;3.33;;
83026;SDS011;72842;56.038;12.706;2024-03-23T09:05:13;12.32;;;2.38;;
83026;SDS011;72842;56.038;12.706;2024-03-23T09:07:39;10.50;;;3.17;;
83026;SDS011;72842;56.038;12.706;2024-03-23T09:10:04;6.75;;;3.33;;
83026;SDS011;72842;56.038;12.706;2024-03-23T09:12:30;11.68;;;3.20;;
83026;SDS011;72842;56.038;12.706;2024-03-23T09:14:55;10.38;;;2.55;;
83026;SDS011;72842;56.038;12.706;2024-03-23T09:17:21;9.00;;;2.92;;
83026;SDS011;72842;56.038;12.706;2024-03-23T09:19:46;9.63;;;2.83;;
83026;SDS011;72842;56.038;12.706;2024-03-23T09:22:12;11.25;;;3.42;;
83026;SDS011;72842;56.038;12.706;2024-03-23T09:24:38;14.02;;;2.50;;
83026;SDS011;72842;56.038;12.706;2024-03-23T09:27:03;8.35;;;2.50;;
83026;SDS011;72842;56.038;12.706;2024-03-23T09:29:29;11.52;;;3.03;;
83026;SDS011;72842;56.038;12.706;2024-03-23T09:31:54;10.38;;;2.65;;
83026;SDS011;72842;56.038;12.706;2024-03-23T09:34:20;10.40;;;3.22;;
83026;SDS011;72842;56.038;12.706;2024-03-23T09:36:46;8.82;;;2.33;;
83026;SDS011;72842;56.038;12.706;2024-03-23T09:39:12;13.27;;;2.40;;
83026;SDS011;72842;56.038;12.706;2024-03-23T09:41:38;8.45;;;2.47;;
83026;SDS011;72842;56.038;12.706;2024-03-23T09:44:04;11.77;;;2.55;;
83026;SDS011;72842;56.038;12.706;2024-03-23T09:46:30;11.43;;;3.40;;
83026;SDS011;72842;56.038;12.706;2024-03-23T09:48:59;12.32;;;4.13;;
83026;SDS011;72842;56.038;12.706;2024-03-23T09:51:25;15.18;;;2.88;;
83026;SDS011;72842;56.038;12.706;2024-03-23T09:53:51;10.40;;;3.05;;
83026;SDS011;72842;56.038;12.706;2024-03-23T09:56:17;10.93;;;2.65;;
83026;SDS011;72842;56.038;12.706;2024-03-23T09:58:43;8.95;;;2.20;;
83026;SDS011;72842;56.038;12.706;2024-03-23T10:01:08;13.15;;;2.92;;
83026;SDS011;72842;56.038;12.706;2024-03-23T10:03:46;11.40;;;2.83;;
83026;SDS011;72842;56.038;12.706;2024-03-23T10:06:12;11.27;;;2.72;;
83026;SDS011;72842;56.038;12.706;2024-03-23T10:08:37;8.32;;;2.17;;
83026;SDS011;72842;56.038;12.706;2024-03-23T10:11:16;8.07;;;2.40;;
83026;SDS011;72842;56.038;12.706;2024-03-23T10:13:42;7.97;;;1.92;;
83026;SDS011;72842;56.038;12.706;2024-03-23T10:16:09;7.95;;;2.25;;
83026;SDS011;72842;56.038;12.706;2024-03-23T10:18:38;7.03;;;2.90;;
83026;SDS011;72842;56.038;12.706;2024-03-23T10:23:30;8.10;;;2.17;;
83026;SDS011;72842;56.038;12.706;2024-03-23T10:26:00;9.45;;;2.22;;
83026;SDS011;72842;56.038;12.706;2024-03-23T10:28:45;9.35;;;3.15;;
83026;SDS011;72842;56.038;12.706;2024-03-23T10:31:36;9.48;;;2.03;;
83026;SDS011;72842;56.038;12.706;2024-03-23T10:34:04;7.03;;;2.47;;
83026;SDS011;72842;56.038;12.706;2024-03-23T10:36:30;9.05;;;2.72;;
83026;SDS011;72842;56.038;12.706;2024-03-23T10:38:56;11.25;;;2.85;;
83026;SDS011;72842;56.038;12.706;2024-03-23T10:41:27;5.50;;;1.98;;
83026;SDS011;72842;56.038;12.706;2024-03-23T10:43:54;7.13;;;1.80;;
83026;SDS011;72842;56.038;12.706;2024-03-23T10:46:21;7.45;;;1.70;;
83026;SDS011;72842;56.038;12.706;2024-03-23T10:48:46;9.30;;;1.77;;
83026;SDS011;72842;56.038;12.706;2024-03-23T10:51:12;7.10;;;2.28;;
83026;SDS011;72842;56.038;12.706;2024-03-23T10:53:39;6.13;;;1.60;;
83026;SDS011;72842;56.038;12.706;2024-03-23T10:56:05;7.03;;;2.20;;
83026;SDS011;72842;56.038;12.706;2024-03-23T10:58:43;8.02;;;1.85;;
83026;SDS011;72842;56.038;12.706;2024-03-23T11:01:15;5.97;;;2.28;;
83026;SDS011;72842;56.038;12.706;2024-03-23T11:03:45;7.70;;;2.20;;
83026;SDS011;72842;56.038;12.706;2024-03-23T11:06:12;9.07;;;2.72;;
83026;SDS011;72842;56.038;12.706;2024-03-23T11:09:03;8.43;;;1.90;;
83026;SDS011;72842;56.038;12.706;2024-03-23T11:11:29;8.65;;;2.30;;
83026;SDS011;72842;56.038;12.706;2024-03-23T11:13:56;10.18;;;2.17;;
83026;SDS011;72842;56.038;12.706;2024-03-23T11:16:26;8.75;;;2.03;;
83026;SDS011;72842;56.038;12.706;2024-03-23T11:18:54;7.82;;;2.50;;
83026;SDS011;72842;56.038;12.706;2024-03-23T11:21:58;5.03;;;1.80;;
83026;SDS011;72842;56.038;12.706;2024-03-23T11:24:24;6.50;;;1.90;;
83026;SDS011;72842;56.038;12.706;2024-03-23T11:26:49;5.85;;;1.75;;
83026;SDS011;72842;56.038;12.706;2024-03-23T11:29:15;6.95;;;1.85;;
83026;SDS011;72842;56.038;12.706;2024-03-23T11:31:49;7.20;;;1.50;;
83026;SDS011;72842;56.038;12.706;2024-03-23T11:34:16;6.90;;;1.63;;
83026;SDS011;72842;56.038;12.706;2024-03-23T11:36:42;5.72;;;1.80;;
83026;SDS011;72842;56.038;12.706;2024-03-23T11:39:26;6.93;;;1.60;;
83026;SDS011;72842;56.038;12.706;2024-03-23T11:41:52;7.93;;;2.10;;
83026;SDS011;72842;56.038;12.706;2024-03-23T11:44:19;6.78;;;1.60;;
83026;SDS011;72842;56.038;12.706;2024-03-23T11:46:45;9.18;;;1.70;;
83026;SDS011;72842;56.038;12.706;2024-03-23T11:49:24;4.90;;;1.30;;
83026;SDS011;72842;56.038;12.706;2024-03-23T11:51:50;7.47;;;1.70;;
83026;SDS011;72842;56.038;12.706;2024-03-23T11:54:19;5.57;;;1.52;;
83026;SDS011;72842;56.038;12.706;2024-03-23T11:57:07;9.75;;;1.73;;
83026;SDS011;72842;56.038;12.706;2024-03-23T12:02:00;6.07;;;1.70;;
83026;SDS011;72842;56.038;12.706;2024-03-23T12:04:29;7.22;;;1.83;;
83026;SDS011;72842;56.038;12.706;2024-03-23T12:07:10;5.47;;;1.70;;
83026;SDS011;72842;56.038;12.706;2024-03-23T12:10:07;5.55;;;2.17;;
83026;SDS011;72842;56.038;12.706;2024-03-23T12:12:32;7.63;;;2.10;;
83026;SDS011;72842;56.038;12.706;2024-03-23T12:15:01;7.68;;;1.60;;
83026;SDS011;72842;56.038;12.706;2024-03-23T12:17:28;4.55;;;1.75;;
83026;SDS011;72842;56.038;12.706;2024-03-23T12:19:54;6.53;;;1.73;;
83026;SDS011;72842;56.038;12.706;2024-03-23T12:22:23;7.05;;;1.88;;
83026;SDS011;72842;56.038;12.706;2024-03-23T12:24:49;4.07;;;1.60;;
83026;SDS011;72842;56.038;12.706;2024-03-23T12:27:15;6.68;;;1.77;;
83026;SDS011;72842;56.038;12.706;2024-03-23T12:29:40;6.10;;;1.15;;
83026;SDS011;72842;56.038;12.706;2024-03-23T12:32:08;5.85;;;1.63;;
83026;SDS011;72842;56.038;12.706;2024-03-23T12:34:33;5.65;;;1.80;;
83026;SDS011;72842;56.038;12.706;2024-03-23T12:36:59;6.10;;;1.70;;
83026;SDS011;72842;56.038;12.706;2024-03-23T12:39:24;4.75;;;1.52;;
83026;SDS011;72842;56.038;12.706;2024-03-23T12:41:50;3.97;;;1.55;;
83026;SDS011;72842;56.038;12.706;2024-03-23T12:44:16;4.07;;;1.33;;
83026;SDS011;72842;56.038;12.706;2024-03-23T12:46:42;5.53;;;2.10;;
83026;SDS011;72842;56.038;12.706;2024-03-23T12:49:07;4.22;;;1.83;;
83026;SDS011;72842;56.038;12.706;2024-03-23T12:51:33;3.45;;;1.35;;
83026;SDS011;72842;56.038;12.706;2024-03-23T12:53:58;5.22;;;2.10;;
83026;SDS011;72842;56.038;12.706;2024-03-23T12:56:24;5.45;;;1.40;;
83026;SDS011;72842;56.038;12.706;2024-03-23T12:58:50;4.93;;;1.60;;
83026;SDS011;72842;56.038;12.706;2024-03-23T13:01:19;5.80;;;1.20;;
83026;SDS011;72842;56.038;12.706;2024-03-23T13:03:47;3.80;;;1.02;;
83026;SDS011;72842;56.038;12.706;2024-03-23T13:06:14;4.30;;;1.67;;
83026;SDS011;72842;56.038;12.706;2024-03-23T13:08:40;4.30;;;1.20;;
83026;SDS011;72842;56.038;12.706;2024-03-23T13:11:06;2.67;;;1.25;;
83026;SDS011;72842;56.038;12.706;2024-03-23T13:13:35;2.45;;;0.75;;
83026;SDS011;72842;56.038;12.706;2024-03-23T13:16:01;4.07;;;0.98;;
83026;SDS011;72842;56.038;12.706;2024-03-23T13:18:28;4.78;;;1.20;;
83026;SDS011;72842;56.038;12.706;2024-03-23T13:20:54;3.88;;;0.95;;
83026;SDS011;72842;56.038;12.706;2024-03-23T13:23:19;1.80;;;0.73;;
83026;SDS011;72842;56.038;12.706;2024-03-23T13:25:52;1.77;;;1.30;;
83026;SDS011;72842;56.038;12.706;2024-03-23T13:28:21;3.20;;;0.80;;
83026;SDS011;72842;56.038;12.706;2024-03-23T13:33:19;1.58;;;0.70;;
83026;SDS011;72842;56.038;12.706;2024-03-23T13:35:49;3.88;;;1.02;;
83026;SDS011;72842;56.038;12.706;2024-03-23T13:38:15;2.08;;;0.82;;
83026;SDS011;72842;56.038;12.706;2024-03-23T13:40:48;4.05;;;0.90;;
83026;SDS011;72842;56.038;12.706;2024-03-23T13:45:53;2.67;;;0.93;;
83026;SDS011;72842;56.038;12.706;2024-03-23T13:48:19;6.22;;;1.45;;
83026;SDS011;72842;56.038;12.706;2024-03-23T13:50:46;3.15;;;0.95;;
83026;SDS011;72842;56.038;12.706;2024-03-23T13:53:15;5.80;;;1.95;;
83026;SDS011;72842;56.038;12.706;2024-03-23T13:55:46;3.55;;;1.45;;
83026;SDS011;72842;56.038;12.706;2024-03-23T13:58:15;3.60;;;1.10;;
83026;SDS011;72842;56.038;12.706;2024-03-23T14:00:41;6.13;;;1.15;;
83026;SDS011;72842;56.038;12.706;2024-03-23T14:03:11;4.35;;;1.23;;
83026;SDS011;72842;56.038;12.706;2024-03-23T14:05:37;4.70;;;0.82;;
83026;SDS011;72842;56.038;12.706;2024-03-23T14:08:06;5.50;;;1.08;;
83026;SDS011;72842;56.038;12.706;2024-03-23T14:10:34;4.35;;;1.13;;
83026;SDS011;72842;56.038;12.706;2024-03-23T14:13:03;5.57;;;1.40;;
83026;SDS011;72842;56.038;12.706;2024-03-23T14:15:29;3.58;;;1.52;;
83026;SDS011;72842;56.038;12.706;2024-03-23T14:17:57;4.75;;;1.30;;
83026;SDS011;72842;56.038;12.706;2024-03-23T14:20:23;3.78;;;1.27;;
83026;SDS011;72842;56.038;12.706;2024-03-23T14:22:49;5.95;;;1.70;;
83026;SDS011;72842;56.038;12.706;2024-03-23T14:25:15;4.90;;;1.40;;
83026;SDS011;72842;56.038;12.706;2024-03-23T14:27:40;7.55;;;2.17;;
83026;SDS011;72842;56.038;12.706;2024-03-23T14:30:08;5.57;;;1.20;;
83026;SDS011;72842;56.038;12.706;2024-03-23T14:32:34;7.13;;;1.85;;
83026;SDS011;72842;56.038;12.706;2024-03-23T14:35:00;5.32;;;1.60;;
83026;SDS011;72842;56.038;12.706;2024-03-23T14:37:26;6.20;;;1.15;;
83026;SDS011;72842;56.038;12.706;2024-03-23T14:39:51;5.47;;;1.20;;
83026;SDS011;72842;56.038;12.706;2024-03-23T14:42:17;2.85;;;1.20;;
83026;SDS011;72842;56.038;12.706;2024-03-23T14:44:43;3.63;;;1.33;;
83026;SDS011;72842;56.038;12.706;2024-03-23T14:47:08;3.95;;;1.60;;
83026;SDS011;72842;56.038;12.706;2024-03-23T14:49:34;3.83;;;1.13;;
83026;SDS011;72842;56.038;12.706;2024-03-23T14:51:59;3.42;;;1.42;;
83026;SDS011;72842;56.038;12.706;2024-03-23T14:54:24;6.35;;;1.50;;
83026;SDS011;72842;56.038;12.706;2024-03-23T14:56:50;5.78;;;1.45;;
83026;SDS011;72842;56.038;12.706;2024-03-23T14:59:15;4.95;;;1.35;;
83026;SDS011;72842;56.038;12.706;2024-03-23T15:01:41;5.88;;;1.63;;
83026;SDS011;72842;56.038;12.706;2024-03-23T15:04:06;4.05;;;1.08;;
83026;SDS011;72842;56.038;12.706;2024-03-23T15:06:33;3.03;;;1.20;;
83026;SDS011;72842;56.038;12.706;2024-03-23T15:08:59;5.80;;;0.90;;
83026;SDS011;72842;56.038;12.706;2024-03-23T15:11:24;3.88;;;1.20;;
83026;SDS011;72842;56.038;12.706;2024-03-23T15:13:50;7.05;;;1.63;;
83026;SDS011;72842;56.038;12.706;2024-03-23T15:16:19;5.10;;;1.60;;
83026;SDS011;72842;56.038;12.706;2024-03-23T15:18:47;5.25;;;1.67;;
83026;SDS011;72842;56.038;12.706;2024-03-23T15:21:13;5.97;;;0.93;;
83026;SDS011;72842;56.038;12.706;2024-03-23T15:23:44;5.00;;;1.42;;
83026;SDS011;72842;56.038;12.706;2024-03-23T15:26:10;4.43;;;1.20;;
83026;SDS011;72842;56.038;12.706;2024-03-23T15:28:35;6.38;;;1.70;;